Latest Coastal Weather Observations for Barrow Island

IDW60701

Issued at 5:22 am WST Saturday 31 January 2015 (issued every 10 minutes, with the page automatically refreshed every 10 minutes)

About coastal observations | Map of coastal stations | Coastal observations for WA | Marine services | Other Formats
Station Details ID: 005094 Name: BARROW ISLAND AIRPORT Lat: -20.88 Lon: 115.41 Height: 6.4 m
Data from the previous 72 hours. | See also: Recent months at Barrow Island
Date/Time
WST
Temp

°C
Wind Pressure Rain
since 9am
mm
Weather Cloud Vis
km
Sea
Height
m
Swell
Dir
 
Speed
knots
Gust
knots
hPa Trend Height
m
Period
s
Dir
31/05:00am 25.2 N 5 6 1006.4 - 0.0 - - - - - - -
31/04:30am 25.4 NNW 4 5 1006.5 - 0.0 - - - - - - -
31/04:00am 25.4 NNW 4 6 1006.5 - 0.0 - - - - - - -
31/03:30am 25.7 W 2 3 1006.7 - 0.0 - - - - - - -
31/03:00am 25.9 W 5 6 1006.5 - 0.0 - - - - - - -
31/02:30am 25.8 W 6 7 1006.5 - 0.0 - - - - - - -
31/02:00am 25.5 WSW 5 6 1006.6 - 0.0 - - - - - - -
31/01:30am 26.0 WSW 5 6 1006.9 - 0.0 - - - - - - -
31/01:00am 26.0 WSW 5 7 1007.1 - 0.0 - - - - - - -
31/12:30am 26.1 WSW 5 7 1007.3 - 0.0 - - - - - - -
31/12:00am 26.3 WSW 7 8 1007.5 - 0.0 - - - - - - -
 
Date/Time
WST
Temp

°C
Wind Pressure Rain
since 9am
mm
Weather Cloud Vis
km
Sea
Height
m
Swell
Dir
 
Speed
knots
Gust
knots
hPa Trend Height
m
Period
s
Dir
30/11:30pm 26.5 WSW 8 10 1007.8 - 0.0 - - - - - - -
30/11:00pm 26.7 WSW 7 9 1008.0 - 0.0 - - - - - - -
30/10:30pm 26.7 WSW 7 9 1008.0 - 0.0 - - - - - - -
30/10:00pm 26.8 W 9 12 1007.9 - 0.0 - - - - - - -
30/09:30pm 26.8 W 8 10 1007.7 - 0.0 - - - - - - -
30/09:00pm 26.8 W 9 11 1007.2 - 0.0 - - - - - - -
30/08:30pm 27.0 WNW 9 11 1006.5 - 0.0 - - - - - - -
30/08:00pm 27.0 WNW 9 11 1006.3 - 0.0 - - - - - - -
30/07:30pm 27.2 WNW 10 13 1005.9 - 0.0 - - - - - - -
30/07:00pm 27.5 WNW 10 14 1005.7 - 0.0 - - - - - - -
30/06:30pm 28.1 WNW 11 14 1005.4 - 0.0 - - - - - - -
30/06:00pm 28.6 WNW 12 16 1005.1 - 0.0 - - - - - - -
30/05:30pm 29.5 WNW 12 16 1005.1 - 0.0 - - - - - - -
30/05:00pm 29.8 NW 11 14 1005.0 - 0.0 - - - - - - -
30/04:30pm 30.6 NW 11 15 1005.1 - 0.0 - - - - - - -
30/04:00pm 30.9 NW 12 16 1005.1 - 0.0 - - - - - - -
30/03:30pm 31.0 NNW 12 16 1005.2 - 0.0 - - - - - - -
30/03:00pm 31.2 NW 11 17 1005.3 - 0.0 - - - - - - -
30/02:30pm 29.7 WNW 7 15 1005.6 - 0.0 - - - - - - -
30/02:00pm 30.1 WSW 13 17 1005.9 - 0.0 - - - - - - -
30/01:30pm 30.1 WSW 10 15 1006.2 - 0.0 - - - - - - -
30/01:00pm 29.6 WSW 11 16 1006.6 - 0.0 - - - - - - -
30/12:30pm 29.9 WSW 12 16 1007.0 - 0.0 - - - - - - -
30/12:00pm 29.8 WSW 11 16 1007.1 - 0.0 - - - - - - -
30/11:30am 29.1 WSW 10 15 1007.4 - 0.0 - - - - - - -
30/11:00am 28.7 WSW 10 14 1007.8 - 0.0 - - - - - - -
30/10:30am 28.8 WSW 12 15 1007.8 - 0.0 - - - - - - -
30/10:00am 29.0 WSW 11 15 1007.8 - 0.0 - - - - - - -
30/09:30am 29.6 WNW 12 16 1007.7 - 0.0 - - - - - - -
30/09:00am 28.3 W 11 15 1007.7 - 0.0 - - - - - - -
30/08:30am 28.3 WNW 10 16 1007.8 - 0.0 - - - - - - -
30/08:00am 27.4 WNW 9 12 1007.5 - 0.0 - - - - - - -
30/07:30am 26.7 WNW 11 12 1007.3 - 0.0 - - - - - - -
30/07:00am 26.3 WNW 8 10 1007.1 - 0.0 - - - - - - -
30/06:30am 25.6 WNW 8 11 1006.8 - 0.0 - - - - - - -
30/06:00am 25.4 WNW 7 9 1006.4 - 0.0 - - - - - - -
30/05:30am 25.7 WNW 8 10 1006.2 - 0.0 - - - - - - -
30/05:00am 25.7 WNW 7 9 1006.1 - 0.0 - - - - - - -
30/04:30am 25.5 WNW 6 8 1005.9 - 0.0 - - - - - - -
30/04:00am 25.3 W 6 9 1005.8 - 0.0 - - - - - - -
30/03:30am 25.0 W 5 7 1005.6 - 0.0 - - - - - - -
30/03:00am 24.9 W 8 9 1005.4 - 0.0 - - - - - - -
30/02:30am 25.2 W 9 11 1005.5 - 0.0 - - - - - - -
30/02:00am 25.6 W 10 13 1005.9 - 0.0 - - - - - - -
30/01:30am 25.2 W 8 10 1006.1 - 0.0 - - - - - - -
30/01:00am 25.4 W 9 11 1006.2 - 0.0 - - - - - - -
30/12:30am 25.6 W 10 12 1006.5 - 0.0 - - - - - - -
30/12:00am 25.6 WSW 11 13 1007.0 - 0.0 - - - - - - -
 
Date/Time
WST
Temp

°C
Wind Pressure Rain
since 9am
mm
Weather Cloud Vis
km
Sea
Height
m
Swell
Dir
 
Speed
knots
Gust
knots
hPa Trend Height
m
Period
s
Dir
29/11:30pm 25.9 WSW 12 15 1007.1 - 0.0 - - - - - - -
29/11:00pm 25.9 WSW 13 16 1007.5 - 0.0 - - - - - - -
29/10:30pm 26.0 WSW 13 17 1007.5 - 0.0 - - - - - - -
29/10:00pm 26.2 WSW 14 19 1007.0 - 0.0 - - - - - - -
29/09:30pm 26.1 WSW 15 20 1006.6 - 0.0 - - - - - - -
29/09:00pm 26.1 W 13 17 1006.3 - 0.0 - - - - - - -
29/08:30pm 26.3 W 14 19 1005.8 - 0.0 - - - - - - -
29/08:00pm 26.4 W 16 20 1005.4 - 0.0 - - - - - - -
29/07:30pm 26.5 W 19 23 1005.0 - 0.0 - - - - - - -
29/07:00pm 26.8 W 17 22 1004.5 - 0.0 - - - - - - -
29/06:30pm 27.2 W 18 22 1004.3 - 0.0 - - - - - - -
29/06:00pm 27.9 W 17 21 1004.3 - 0.0 - - - - - - -
29/05:30pm 28.4 W 17 22 1004.1 - 0.0 - - - - - - -
29/05:00pm 29.1 W 17 22 1004.1 - 0.0 - - - - - - -
29/04:30pm 29.6 W 15 20 1004.2 - 0.0 - - - - - - -
29/04:00pm 29.4 W 17 23 1004.5 - 0.0 - - - - - - -
29/03:30pm 29.7 W 15 21 1005.0 - 0.0 - - - - - - -
29/03:00pm 30.9 WSW 16 20 1005.3 - 0.0 - - - - - - -
29/02:30pm 30.1 WSW 16 21 1005.5 - 0.0 - - - - - - -
29/02:00pm 30.4 W 16 21 1005.6 - 0.0 - - - - - - -
29/01:30pm 30.3 WSW 14 19 1005.9 - 0.0 - - - - - - -
29/01:00pm 30.0 WSW 15 21 1006.4 - 0.0 - - - - - - -
29/12:30pm 30.0 WSW 15 19 1006.4 - 0.0 - - - - - - -
29/12:00pm 29.7 WSW 13 18 1006.4 - 0.0 - - - - - - -
29/11:30am 29.5 WSW 13 17 1006.8 - 0.0 - - - - - - -
29/11:00am 28.9 WSW 13 17 1007.2 - 0.0 - - - - - - -
29/10:30am 29.3 WSW 10 15 1007.3 - 0.0 - - - - - - -
29/10:00am 28.7 WSW 10 15 1007.5 - 0.0 - - - - - - -
29/09:30am 28.1 WSW 9 13 1007.4 - 0.0 - - - - - - -
29/09:00am 28.1 SW 9 13 1007.5 - 0.0 - - - - - - -
29/08:30am 27.5 SW 10 13 1007.3 - 0.0 - - - - - - -
29/08:00am 26.6 WSW 10 13 1007.3 - 0.0 - - - - - - -
29/07:30am 26.0 WSW 11 14 1007.0 - 0.0 - - - - - - -
29/07:00am 25.6 WSW 11 14 1006.7 - 0.0 - - - - - - -
29/06:30am 25.0 WSW 10 13 1006.2 - 0.0 - - - - - - -
29/06:00am 24.7 W 10 12 1005.7 - 0.0 - - - - - - -
29/05:30am 24.8 WSW 11 13 1005.6 - 0.0 - - - - - - -
29/05:00am 24.9 WSW 11 13 1005.5 - 0.0 - - - - - - -
29/04:30am 25.0 WSW 10 13 1005.5 - 0.0 - - - - - - -
29/04:00am 25.1 WSW 12 15 1005.2 - 0.0 - - - - - - -
29/03:30am 25.2 WSW 12 14 1005.0 - 0.0 - - - - - - -
29/03:00am 25.3 WSW 13 16 1004.9 - 0.0 - - - - - - -
29/02:30am 25.0 WSW 11 14 1004.9 - 0.0 - - - - - - -
29/02:00am 25.1 SW 15 19 1005.1 - 0.0 - - - - - - -
29/01:30am 25.1 SW 15 20 1005.3 - 0.0 - - - - - - -
29/01:00am 25.4 WSW 16 20 1005.5 - 0.0 - - - - - - -
29/12:30am 25.4 SW 16 20 1005.9 - 0.0 - - - - - - -
29/12:00am 25.5 WSW 15 18 1006.3 - 0.0 - - - - - - -
 
Date/Time
WST
Temp

°C
Wind Pressure Rain
since 9am
mm
Weather Cloud Vis
km
Sea
Height
m
Swell
Dir
 
Speed
knots
Gust
knots
hPa Trend Height
m
Period
s
Dir
28/11:30pm 25.4 SW 17 20 1006.2 - 0.0 - - - - - - -
28/11:00pm 25.5 SW 17 21 1006.3 - 0.0 - - - - - - -
28/10:30pm 25.8 WSW 16 20 1006.2 - 0.0 - - - - - - -
28/10:00pm 25.7 WSW 18 23 1006.1 - 0.0 - - - - - - -
28/09:30pm 25.9 WSW 17 22 1005.8 - 0.0 - - - - - - -
28/09:00pm 25.9 W 19 23 1005.6 - 0.0 - - - - - - -
28/08:30pm 26.0 W 19 23 1005.6 - 0.0 - - - - - - -
28/08:00pm 26.1 W 17 20 1005.4 - 0.0 - - - - - - -
28/07:30pm 26.2 W 14 18 1005.4 - 0.0 - - - - - - -
28/07:00pm 26.6 W 15 19 1005.2 - 0.0 - - - - - - -
28/06:30pm 27.1 W 16 20 1005.1 - 0.0 - - - - - - -
28/06:00pm 28.0 W 15 19 1005.0 - 0.0 - - - - - - -
28/05:30pm 28.4 W 15 20 1005.0 - 0.0 - - - - - - -
28/05:00pm 28.6 W 15 20 1004.7 - 0.0 - - - - - - -
28/04:30pm 29.1 W 16 21 1004.7 - 0.0 - - - - - - -
28/04:00pm 29.0 WSW 16 20 1004.9 - 0.0 - - - - - - -
28/03:30pm 29.3 WSW 15 20 1005.2 - 0.0 - - - - - - -
28/03:00pm 29.1 W 15 20 1005.3 - 0.0 - - - - - - -
28/02:30pm 29.7 WSW 15 23 1005.4 - 0.0 - - - - - - -
28/02:00pm 30.1 W 14 19 1005.5 - 0.0 - - - - - - -
28/01:30pm 30.5 W 12 18 1005.8 - 0.0 - - - - - - -
28/01:00pm 29.3 SW 13 18 1006.2 - 0.0 - - - - - - -
28/12:30pm 30.3 W 12 17 1006.3 - 0.0 - - - - - - -
28/12:00pm 29.4 WSW 11 17 1006.7 - 0.0 - - - - - - -
28/11:30am 29.2 SSW 12 16 1007.0 - 0.0 - - - - - - -
28/11:00am 29.0 SSW 10 15 1007.1 - 0.0 - - - - - - -
28/10:30am 29.1 SSW 10 13 1007.3 - 0.0 - - - - - - -
28/10:00am 27.7 SSW 9 11 1007.7 - 0.0 - - - - - - -
28/09:30am 28.2 SSW 10 13 1007.8 - 0.0 - - - - - - -
28/09:00am 27.9 WSW 11 15 1007.8 - 0.0 - - - - - - -
28/08:30am 27.6 WSW 11 14 1007.5 - 0.0 - - - - - - -
28/08:00am 27.2 WSW 10 14 1007.0 - 0.0 - - - - - - -
28/07:30am 26.7 WSW 11 15 1007.0 - 0.0 - - - - - - -
28/07:00am 26.0 WSW 9 11 1006.8 - 0.0 - - - - - - -
28/06:30am 25.2 WSW 9 11 1006.3 - 0.0 - - - - - - -
28/06:00am 25.2 WSW 10 12 1005.9 - 0.0 - - - - - - -
28/05:30am 24.9 WSW 10 12 1005.7 - 0.0 - - - - - - -

Other Formats:

Comma delimited format used in spreadsheet applications
http://www.bom.gov.au/fwo/IDW60701/IDW60701.95304.axf

JavaScript Object Notation format (JSON) in row-major order
http://www.bom.gov.au/fwo/IDW60701/IDW60701.95304.json